createdAt,value
2018-12-16T00:01:32.682Z,5.64
2018-12-16T00:04:01.849Z,5.52
2018-12-16T00:06:30.838Z,5.60
2018-12-16T00:09:00.043Z,5.66
2018-12-16T00:11:28.696Z,5.66
2018-12-16T00:13:57.338Z,5.70
2018-12-16T00:16:26.351Z,5.70
2018-12-16T00:18:55.314Z,5.65
2018-12-16T00:21:24.426Z,5.63
2018-12-16T00:23:53.384Z,5.69
2018-12-16T00:26:22.565Z,5.74
2018-12-16T00:28:51.587Z,5.76
2018-12-16T00:31:20.471Z,5.81
2018-12-16T00:33:49.646Z,5.79
2018-12-16T00:36:18.567Z,5.78
2018-12-16T00:38:47.833Z,5.74
2018-12-16T00:41:16.765Z,5.78
2018-12-16T00:43:45.512Z,5.76
2018-12-16T00:46:14.199Z,5.66
2018-12-16T00:48:43.232Z,5.67
2018-12-16T00:51:12.415Z,5.75
2018-12-16T00:53:41.415Z,5.67
2018-12-16T00:56:16.844Z,5.75
2018-12-16T00:58:45.867Z,5.68
2018-12-16T01:01:14.683Z,5.72
2018-12-16T01:03:43.419Z,5.73
2018-12-16T01:06:12.347Z,5.74
2018-12-16T01:08:41.425Z,5.78
2018-12-16T01:11:10.508Z,5.77
2018-12-16T01:13:39.410Z,5.72
2018-12-16T01:16:08.397Z,5.72
2018-12-16T01:18:37.154Z,5.65
2018-12-16T01:21:06.191Z,5.65
2018-12-16T01:23:35.166Z,5.66
2018-12-16T01:26:03.877Z,5.69
2018-12-16T01:28:32.862Z,5.71
2018-12-16T01:31:01.851Z,5.57
2018-12-16T01:33:30.598Z,5.61
2018-12-16T01:35:59.729Z,5.65
2018-12-16T01:38:28.736Z,5.66
2018-12-16T01:40:57.621Z,5.70
2018-12-16T01:43:26.609Z,5.66
2018-12-16T01:45:55.498Z,5.70
2018-12-16T01:48:24.485Z,5.73
2018-12-16T01:50:59.741Z,5.77
2018-12-16T01:53:28.786Z,5.77
2018-12-16T01:55:57.414Z,5.76
2018-12-16T01:58:26.079Z,5.75
2018-12-16T02:00:55.112Z,5.72
2018-12-16T02:03:24.090Z,5.76
2018-12-16T02:05:53.015Z,5.75
2018-12-16T02:08:21.786Z,5.68
2018-12-16T02:10:50.964Z,5.63
2018-12-16T02:13:19.971Z,5.68
2018-12-16T02:15:48.766Z,5.72
2018-12-16T02:18:17.710Z,5.67
2018-12-16T02:20:46.426Z,5.58
2018-12-16T02:23:16.355Z,5.61
2018-12-16T02:25:45.078Z,5.62
2018-12-16T02:28:14.120Z,5.63
2018-12-16T02:30:43.100Z,5.41
2018-12-16T02:33:12.025Z,5.52
2018-12-16T02:35:40.904Z,5.59
2018-12-16T02:38:09.900Z,5.64
2018-12-16T02:40:38.641Z,5.64
2018-12-16T02:43:07.723Z,5.62
2018-12-16T02:45:36.387Z,5.41
2018-12-16T02:48:05.606Z,5.51
2018-12-16T02:50:34.549Z,5.53
2018-12-16T02:53:04.692Z,5.62
2018-12-16T02:55:33.728Z,5.68
2018-12-16T02:58:02.489Z,5.65
2018-12-16T03:00:31.624Z,5.62
2018-12-16T03:03:00.301Z,5.52
2018-12-16T03:05:29.088Z,5.52
2018-12-16T03:07:58.131Z,5.54
2018-12-16T03:10:26.869Z,5.51
2018-12-16T03:12:55.909Z,5.49
2018-12-16T03:15:25.102Z,5.43
2018-12-16T03:17:54.025Z,5.37
2018-12-16T03:20:22.767Z,5.42
2018-12-16T03:22:51.492Z,5.40
2018-12-16T03:25:20.473Z,5.29
2018-12-16T03:27:49.465Z,5.39
2018-12-16T03:30:18.116Z,5.18
2018-12-16T03:32:46.806Z,5.37
2018-12-16T03:35:15.768Z,5.32
2018-12-16T03:37:44.915Z,5.25
2018-12-16T03:40:13.926Z,5.12
2018-12-16T03:42:42.919Z,5.21
2018-12-16T03:45:12.019Z,5.37
2018-12-16T03:47:41.121Z,5.33
2018-12-16T03:50:10.025Z,5.35
2018-12-16T03:52:39.094Z,5.32
2018-12-16T03:55:08.193Z,5.38
2018-12-16T03:57:37.287Z,5.53
2018-12-16T04:00:06.982Z,5.51
2018-12-16T04:02:36.187Z,5.49
2018-12-16T04:05:05.326Z,5.50
2018-12-16T04:07:34.130Z,5.40
2018-12-16T04:10:03.023Z,5.32
2018-12-16T04:12:32.058Z,5.32
2018-12-16T04:15:01.055Z,5.29
2018-12-16T04:17:29.809Z,5.22
2018-12-16T04:19:58.554Z,5.20
2018-12-16T04:22:27.429Z,5.22
2018-12-16T04:24:56.074Z,5.28
2018-12-16T04:27:24.754Z,5.44
2018-12-16T04:29:54.078Z,5.41
2018-12-16T04:32:23.102Z,5.42
2018-12-16T04:34:52.108Z,5.35
2018-12-16T04:37:20.871Z,5.39
2018-12-16T04:39:49.620Z,5.27
2018-12-16T04:42:18.663Z,5.23
2018-12-16T04:44:47.880Z,5.28
2018-12-16T04:47:16.861Z,5.34
2018-12-16T04:49:45.839Z,5.21
2018-12-16T04:52:14.679Z,5.40
2018-12-16T04:54:43.381Z,5.29
2018-12-16T04:57:12.500Z,5.14
2018-12-16T04:59:41.158Z,5.13
2018-12-16T05:02:09.850Z,5.16
2018-12-16T05:04:38.489Z,5.45
2018-12-16T05:07:07.558Z,5.59
2018-12-16T05:09:36.555Z,5.62
2018-12-16T05:12:05.560Z,5.57
2018-12-16T05:14:34.555Z,5.60
2018-12-16T05:17:03.627Z,5.59
2018-12-16T05:19:32.635Z,5.65
2018-12-16T05:22:01.436Z,5.67
2018-12-16T05:24:30.354Z,5.67
2018-12-16T05:26:59.088Z,5.67
2018-12-16T05:29:31.996Z,5.73
2018-12-16T05:32:00.810Z,5.76
2018-12-16T05:34:29.631Z,5.78
2018-12-16T05:36:58.287Z,5.69
2018-12-16T05:39:27.347Z,5.65
2018-12-16T05:41:56.310Z,5.66
2018-12-16T05:44:25.093Z,5.65
2018-12-16T05:46:53.834Z,5.64
2018-12-16T05:49:22.667Z,5.60
2018-12-16T05:51:51.689Z,5.59
2018-12-16T05:54:20.413Z,5.58
2018-12-16T05:56:49.101Z,5.59
2018-12-16T05:59:18.180Z,5.56
2018-12-16T06:01:47.158Z,5.55
2018-12-16T06:04:15.826Z,5.55
2018-12-16T06:06:44.851Z,5.57
2018-12-16T06:09:13.850Z,5.61
2018-12-16T06:11:42.607Z,5.60
2018-12-16T06:14:11.627Z,5.63
2018-12-16T06:16:40.478Z,5.56
2018-12-16T06:19:09.137Z,5.58
2018-12-16T06:21:39.041Z,5.58
2018-12-16T06:24:08.069Z,5.61
2018-12-16T06:26:37.098Z,5.62
2018-12-16T06:29:06.872Z,5.62
2018-12-16T06:31:35.904Z,5.61
2018-12-16T06:34:05.011Z,5.60
2018-12-16T06:36:33.993Z,5.57
2018-12-16T06:39:03.020Z,5.60
2018-12-16T06:41:31.710Z,5.61
2018-12-16T06:44:00.662Z,5.63
2018-12-16T06:46:29.663Z,5.58
2018-12-16T06:48:58.693Z,5.58
2018-12-16T06:51:27.464Z,5.54
2018-12-16T06:54:02.135Z,5.54
2018-12-16T06:56:27.367Z,5.49
2018-12-16T06:58:56.179Z,5.52
2018-12-16T07:01:24.950Z,5.50
2018-12-16T07:03:54.031Z,5.54
2018-12-16T07:06:23.043Z,5.46
2018-12-16T07:08:52.042Z,5.48
2018-12-16T07:11:21.026Z,5.50
2018-12-16T07:13:49.850Z,5.52
2018-12-16T07:16:18.575Z,5.52
2018-12-16T07:18:47.678Z,5.52
2018-12-16T07:21:16.391Z,5.55
2018-12-16T07:23:45.101Z,5.62
2018-12-16T07:26:14.171Z,5.65
2018-12-16T07:28:43.247Z,5.66
2018-12-16T07:31:12.133Z,5.72
2018-12-16T07:33:41.099Z,5.74
2018-12-16T07:36:10.176Z,5.79
2018-12-16T07:38:38.886Z,5.75
2018-12-16T07:41:07.609Z,5.73
2018-12-16T07:43:36.313Z,5.70
2018-12-16T07:46:05.619Z,5.74
2018-12-16T07:48:34.298Z,5.73
2018-12-16T07:51:03.030Z,5.83
2018-12-16T07:53:31.876Z,5.88
2018-12-16T07:56:00.973Z,5.92
2018-12-16T07:58:30.095Z,5.97
2018-12-16T08:00:58.956Z,6.00
2018-12-16T08:03:27.944Z,6.09
2018-12-16T08:05:57.039Z,6.16
2018-12-16T08:08:26.248Z,6.12
2018-12-16T08:10:54.934Z,6.13
2018-12-16T08:13:23.594Z,6.12
2018-12-16T08:15:52.597Z,6.11
2018-12-16T08:18:21.806Z,6.06
2018-12-16T08:20:50.786Z,6.11
2018-12-16T08:23:19.782Z,6.17
2018-12-16T08:25:48.687Z,6.22
2018-12-16T08:28:17.773Z,6.25
2018-12-16T08:30:46.524Z,6.26
2018-12-16T08:33:15.573Z,6.29
2018-12-16T08:35:44.766Z,6.31
2018-12-16T08:38:14.170Z,6.34
2018-12-16T08:40:42.963Z,6.44
2018-12-16T08:43:12.382Z,6.47
2018-12-16T08:45:41.203Z,6.53
2018-12-16T08:48:10.463Z,6.49
2018-12-16T08:50:39.443Z,6.44
2018-12-16T08:53:08.605Z,6.42
2018-12-16T08:55:37.267Z,6.43
2018-12-16T08:58:06.432Z,6.38
2018-12-16T09:00:35.099Z,6.31
2018-12-16T09:03:03.920Z,6.34
2018-12-16T09:05:32.665Z,6.38
2018-12-16T09:08:01.545Z,6.31
2018-12-16T09:10:34.035Z,6.28
2018-12-16T09:13:00.980Z,6.26
2018-12-16T09:15:30.004Z,6.23
2018-12-16T09:17:59.094Z,6.26
2018-12-16T09:20:28.177Z,6.23
2018-12-16T09:22:57.680Z,6.27
2018-12-16T09:25:26.688Z,6.31
2018-12-16T09:27:55.657Z,6.31
2018-12-16T09:30:24.343Z,6.34
2018-12-16T09:32:53.021Z,6.35
2018-12-16T09:35:24.987Z,6.41
2018-12-16T09:37:53.661Z,6.35
2018-12-16T09:40:22.790Z,6.35
2018-12-16T09:42:52.079Z,6.36
2018-12-16T09:45:20.981Z,6.34
2018-12-16T09:47:50.154Z,6.35
2018-12-16T09:50:19.298Z,6.36
2018-12-16T09:52:48.278Z,6.38
2018-12-16T09:55:17.365Z,6.26
2018-12-16T09:57:46.019Z,6.37
2018-12-16T10:00:15.038Z,6.46
2018-12-16T10:02:44.018Z,6.49
2018-12-16T10:05:13.207Z,6.51
2018-12-16T10:07:41.923Z,6.48
2018-12-16T10:10:12.074Z,6.43
2018-12-16T10:12:41.311Z,6.45
2018-12-16T10:15:10.144Z,6.44
2018-12-16T10:17:39.135Z,6.45
2018-12-16T10:20:09.756Z,6.41
2018-12-16T10:22:38.660Z,6.34
2018-12-16T10:25:07.592Z,6.47
2018-12-16T10:27:36.446Z,6.47
2018-12-16T10:30:07.134Z,6.50
2018-12-16T10:32:36.058Z,6.50
2018-12-16T10:35:05.155Z,6.52
2018-12-16T10:37:35.173Z,6.53
2018-12-16T10:40:05.951Z,6.54
2018-12-16T10:42:34.960Z,6.49
2018-12-16T10:45:04.274Z,6.45
2018-12-16T10:47:33.814Z,6.45
2018-12-16T10:50:03.018Z,6.47
2018-12-16T10:52:32.002Z,6.49
2018-12-16T10:55:07.577Z,6.48
2018-12-16T10:57:36.547Z,6.46
2018-12-16T11:00:08.850Z,6.46
2018-12-16T11:02:37.806Z,6.52
2018-12-16T11:05:06.638Z,6.53
2018-12-16T11:07:35.584Z,6.55
2018-12-16T11:10:04.901Z,6.57
2018-12-16T11:12:34.566Z,6.58
2018-12-16T11:15:03.354Z,6.62
2018-12-16T11:17:32.453Z,6.70
2018-12-16T11:20:01.138Z,6.74
2018-12-16T11:22:30.578Z,6.67
2018-12-16T11:25:05.569Z,6.68
2018-12-16T11:27:30.814Z,6.70
2018-12-16T11:29:59.491Z,6.74
2018-12-16T11:32:28.360Z,6.71
2018-12-16T11:34:57.769Z,6.70
2018-12-16T11:37:26.722Z,6.68
2018-12-16T11:39:55.462Z,6.71
2018-12-16T11:42:24.481Z,6.68
2018-12-16T11:44:53.221Z,6.71
2018-12-16T11:47:22.191Z,6.71
2018-12-16T11:49:51.232Z,6.67
2018-12-16T11:52:20.023Z,6.62
2018-12-16T11:54:48.783Z,6.68
2018-12-16T11:57:17.711Z,6.63
2018-12-16T11:59:46.639Z,6.60
2018-12-16T12:02:15.381Z,6.56
2018-12-16T12:04:44.074Z,6.55
2018-12-16T12:07:12.916Z,6.53
2018-12-16T12:09:41.624Z,6.54
2018-12-16T12:12:10.657Z,6.51
2018-12-16T12:14:39.946Z,6.52
2018-12-16T12:17:08.794Z,6.52
2018-12-16T12:19:40.481Z,6.57
2018-12-16T12:22:09.533Z,6.59
2018-12-16T12:24:38.597Z,6.54
2018-12-16T12:27:07.785Z,6.52
2018-12-16T12:29:36.576Z,6.51
2018-12-16T12:32:05.468Z,6.53
2018-12-16T12:34:34.460Z,6.56
2018-12-16T12:37:03.542Z,6.59
2018-12-16T12:39:32.829Z,6.57
2018-12-16T12:42:02.117Z,6.57
2018-12-16T12:44:31.424Z,6.59
2018-12-16T12:47:00.178Z,6.63
2018-12-16T12:49:29.125Z,6.66
2018-12-16T12:51:57.946Z,6.68
2018-12-16T12:54:26.581Z,6.67
2018-12-16T12:56:55.532Z,6.59
2018-12-16T12:59:24.868Z,6.43
2018-12-16T13:01:54.157Z,6.20
2018-12-16T13:04:23.189Z,6.08
2018-12-16T13:06:52.340Z,5.94
2018-12-16T13:09:21.305Z,5.72
2018-12-16T13:11:49.933Z,5.60
2018-12-16T13:14:19.183Z,5.47
2018-12-16T13:16:48.072Z,5.36
2018-12-16T13:19:17.294Z,5.27
2018-12-16T13:21:46.326Z,5.20
2018-12-16T13:24:15.355Z,5.19
2018-12-16T13:26:44.135Z,5.07
2018-12-16T13:29:13.341Z,4.92
2018-12-16T13:31:42.435Z,4.84
2018-12-16T13:34:11.163Z,4.81
2018-12-16T13:36:39.841Z,4.79
2018-12-16T13:39:09.094Z,4.74
2018-12-16T13:41:38.151Z,4.67
2018-12-16T13:44:07.206Z,4.61
2018-12-16T13:46:36.365Z,4.59
2018-12-16T13:49:05.614Z,4.53
2018-12-16T13:51:34.429Z,4.50
2018-12-16T13:54:03.285Z,4.48
2018-12-16T13:56:32.282Z,4.43
2018-12-16T13:59:01.052Z,4.37
2018-12-16T14:01:30.217Z,4.32
2018-12-16T14:03:59.399Z,4.30
2018-12-16T14:06:28.187Z,4.25
2018-12-16T14:08:57.206Z,4.20
2018-12-16T14:11:26.498Z,4.20
2018-12-16T14:13:55.269Z,4.18
2018-12-16T14:16:24.421Z,4.17
2018-12-16T14:18:53.163Z,4.13
2018-12-16T14:21:22.302Z,4.10
2018-12-16T14:23:51.304Z,4.07
2018-12-16T14:26:20.294Z,4.09
2018-12-16T14:28:49.408Z,4.05
2018-12-16T14:31:18.486Z,4.02
2018-12-16T14:33:47.481Z,4.00
2018-12-16T14:36:16.580Z,4.02
2018-12-16T14:38:45.779Z,3.98
2018-12-16T14:41:15.130Z,3.96
2018-12-16T14:43:44.552Z,3.96
2018-12-16T14:46:13.890Z,3.96
2018-12-16T14:48:42.888Z,3.96
2018-12-16T14:51:12.091Z,3.91
2018-12-16T14:53:41.117Z,3.87
2018-12-16T14:56:09.972Z,3.87
2018-12-16T14:58:39.019Z,3.82
2018-12-16T15:01:09.126Z,3.80
2018-12-16T15:03:39.305Z,3.73
2018-12-16T15:06:08.355Z,3.67
2018-12-16T15:08:37.599Z,3.65
2018-12-16T15:11:07.091Z,3.61
2018-12-16T15:13:36.088Z,3.57
2018-12-16T15:16:05.045Z,3.54
2018-12-16T15:18:34.003Z,3.47
2018-12-16T15:21:02.827Z,3.47
2018-12-16T15:23:31.620Z,3.44
2018-12-16T15:26:02.167Z,3.43
2018-12-16T15:28:31.488Z,3.27
2018-12-16T15:31:00.143Z,3.31
2018-12-16T15:33:29.224Z,3.26
2018-12-16T15:35:58.557Z,3.26
2018-12-16T15:38:28.069Z,3.25
2018-12-16T15:40:57.167Z,3.24
2018-12-16T15:43:25.993Z,3.26
2018-12-16T15:45:55.671Z,3.23
2018-12-16T15:48:24.954Z,3.18
2018-12-16T15:50:54.063Z,3.21
2018-12-16T15:53:23.254Z,3.22
2018-12-16T15:55:52.362Z,3.14
2018-12-16T15:58:21.462Z,3.13
2018-12-16T16:00:50.202Z,3.12
2018-12-16T16:03:19.450Z,3.06
2018-12-16T16:05:48.568Z,3.04
2018-12-16T16:08:17.647Z,3.02
2018-12-16T16:10:46.664Z,3.01
2018-12-16T16:13:15.734Z,2.92
2018-12-16T16:15:44.424Z,2.96
2018-12-16T16:18:13.908Z,2.97
2018-12-16T16:20:43.011Z,2.95
2018-12-16T16:23:12.099Z,2.92
2018-12-16T16:25:41.004Z,2.88
2018-12-16T16:28:10.270Z,2.88
2018-12-16T16:30:39.406Z,2.88
2018-12-16T16:33:08.623Z,2.86
2018-12-16T16:35:37.449Z,2.87
2018-12-16T16:38:06.998Z,2.83
2018-12-16T16:40:36.577Z,2.85
2018-12-16T16:43:05.250Z,2.85
2018-12-16T16:45:34.133Z,2.87
2018-12-16T16:48:03.475Z,2.85
2018-12-16T16:50:32.227Z,2.87
2018-12-16T16:53:01.254Z,2.86
2018-12-16T16:55:30.136Z,2.92
2018-12-16T16:57:59.256Z,2.90
2018-12-16T17:00:28.254Z,2.94
2018-12-16T17:02:57.340Z,2.97
2018-12-16T17:05:26.176Z,2.97
2018-12-16T17:07:54.892Z,2.99
2018-12-16T17:10:23.635Z,2.96
2018-12-16T17:12:52.694Z,2.99
2018-12-16T17:15:21.896Z,3.02
2018-12-16T17:17:51.001Z,3.03
2018-12-16T17:20:19.775Z,3.05
2018-12-16T17:22:48.770Z,3.03
2018-12-16T17:25:18.577Z,3.03
2018-12-16T17:27:47.550Z,3.01
2018-12-16T17:30:16.335Z,3.03
2018-12-16T17:32:45.075Z,3.08
2018-12-16T17:35:13.867Z,3.05
2018-12-16T17:37:42.721Z,3.07
2018-12-16T17:40:12.412Z,3.10
2018-12-16T17:42:41.229Z,3.12
2018-12-16T17:45:10.283Z,3.14
2018-12-16T17:47:40.240Z,3.10
2018-12-16T17:50:09.759Z,3.09
2018-12-16T17:52:38.835Z,3.09
2018-12-16T17:55:07.840Z,3.09
2018-12-16T17:57:36.796Z,3.11
2018-12-16T18:00:06.840Z,3.09
2018-12-16T18:02:36.234Z,3.12
2018-12-16T18:05:06.453Z,3.16
2018-12-16T18:07:35.463Z,3.19
2018-12-16T18:10:05.286Z,3.26
2018-12-16T18:12:34.722Z,3.27
2018-12-16T18:15:03.471Z,3.25
2018-12-16T18:17:32.821Z,3.25
2018-12-16T18:20:01.716Z,3.22
2018-12-16T18:22:30.716Z,3.20
2018-12-16T18:25:00.224Z,3.21
2018-12-16T18:27:29.154Z,3.19
2018-12-16T18:29:58.052Z,3.11
2018-12-16T18:32:27.133Z,3.07
2018-12-16T18:34:55.915Z,3.01
2018-12-16T18:37:24.719Z,2.96
2018-12-16T18:39:53.554Z,2.95
2018-12-16T18:42:22.392Z,2.89
2018-12-16T18:44:51.564Z,2.87
2018-12-16T18:47:20.429Z,2.77
2018-12-16T18:49:49.423Z,2.74
2018-12-16T18:52:18.156Z,2.69
2018-12-16T18:54:46.916Z,2.66
2018-12-16T18:57:15.857Z,2.64
2018-12-16T18:59:44.767Z,2.62
2018-12-16T19:02:13.761Z,2.55
2018-12-16T19:04:42.532Z,2.48
2018-12-16T19:07:11.277Z,2.49
2018-12-16T19:09:40.293Z,2.41
2018-12-16T19:12:09.262Z,2.38
2018-12-16T19:14:38.343Z,2.37
2018-12-16T19:17:07.327Z,2.36
2018-12-16T19:19:36.131Z,2.33
2018-12-16T19:22:05.114Z,2.36
2018-12-16T19:24:33.929Z,2.32
2018-12-16T19:27:02.714Z,2.31
2018-12-16T19:29:32.333Z,2.29
2018-12-16T19:32:01.465Z,2.27
2018-12-16T19:34:30.230Z,2.28
2018-12-16T19:37:05.485Z,2.28
2018-12-16T19:39:34.263Z,2.27
2018-12-16T19:42:03.273Z,2.25
2018-12-16T19:44:32.163Z,2.24
2018-12-16T19:47:01.019Z,2.16
2018-12-16T19:49:30.045Z,2.16
2018-12-16T19:51:59.154Z,2.18
2018-12-16T19:54:28.519Z,2.15
2018-12-16T19:56:57.514Z,2.16
2018-12-16T19:59:26.287Z,2.16
2018-12-16T20:01:55.290Z,2.07
2018-12-16T20:04:26.319Z,2.08
2018-12-16T20:06:55.382Z,2.08
2018-12-16T20:09:24.294Z,2.07
2018-12-16T20:11:53.067Z,2.09
2018-12-16T20:14:21.914Z,2.04
2018-12-16T20:16:50.841Z,2.02
2018-12-16T20:19:19.499Z,1.99
2018-12-16T20:21:48.258Z,1.99
2018-12-16T20:24:17.005Z,1.98
2018-12-16T20:26:45.840Z,1.94
2018-12-16T20:29:14.644Z,1.94
2018-12-16T20:31:43.342Z,1.94
2018-12-16T20:34:12.591Z,1.94
2018-12-16T20:36:41.514Z,1.96
2018-12-16T20:39:10.224Z,1.95
2018-12-16T20:41:39.227Z,1.91
2018-12-16T20:44:08.482Z,1.92
2018-12-16T20:46:37.224Z,1.94
2018-12-16T20:49:06.172Z,1.91
2018-12-16T20:51:35.143Z,1.93
2018-12-16T20:54:04.182Z,1.92
2018-12-16T20:56:33.854Z,1.94
2018-12-16T20:59:02.713Z,1.95
2018-12-16T21:01:31.479Z,1.96
2018-12-16T21:04:00.422Z,1.99
2018-12-16T21:06:30.704Z,1.99
2018-12-16T21:08:59.526Z,1.99
2018-12-16T21:12:09.793Z,2.03
2018-12-16T21:14:43.952Z,1.98
2018-12-16T21:17:17.945Z,1.96
2018-12-16T21:19:46.663Z,2.01
2018-12-16T21:22:15.367Z,2.00
2018-12-16T21:24:44.059Z,1.95
2018-12-16T21:27:13.053Z,1.88
2018-12-16T21:29:42.016Z,1.92
2018-12-16T21:32:10.744Z,1.94
2018-12-16T21:34:39.680Z,1.97
2018-12-16T21:37:08.398Z,1.98
2018-12-16T21:39:37.301Z,1.95
2018-12-16T21:42:06.046Z,1.97
2018-12-16T21:44:35.163Z,2.00
2018-12-16T21:47:04.173Z,1.94
2018-12-16T21:49:33.137Z,1.98
2018-12-16T21:52:01.860Z,2.01
2018-12-16T21:54:30.715Z,2.02
2018-12-16T21:57:00.006Z,1.99
2018-12-16T21:59:29.607Z,2.03
2018-12-16T22:01:59.418Z,2.05
2018-12-16T22:04:28.418Z,2.06
2018-12-16T22:06:57.185Z,2.07
2018-12-16T22:09:26.000Z,2.07
2018-12-16T22:11:54.755Z,2.07
2018-12-16T22:14:23.555Z,2.10
2018-12-16T22:16:52.404Z,2.09
2018-12-16T22:19:21.213Z,2.03
2018-12-16T22:21:50.254Z,2.04
2018-12-16T22:24:18.993Z,2.03
2018-12-16T22:26:48.024Z,2.06
2018-12-16T22:29:17.029Z,2.11
2018-12-16T22:31:45.967Z,2.09
2018-12-16T22:34:15.311Z,2.10
2018-12-16T22:36:44.305Z,2.08
2018-12-16T22:39:13.253Z,2.05
2018-12-16T22:41:42.081Z,2.09
2018-12-16T22:44:10.959Z,2.13
2018-12-16T22:46:41.229Z,2.13
2018-12-16T22:49:10.481Z,2.14
2018-12-16T22:51:39.124Z,2.15
2018-12-16T22:54:07.854Z,2.16
2018-12-16T22:56:36.684Z,2.21
2018-12-16T22:59:05.717Z,2.24
2018-12-16T23:01:34.641Z,2.24
2018-12-16T23:04:03.653Z,2.22
2018-12-16T23:06:32.692Z,2.25
2018-12-16T23:09:01.650Z,2.28
2018-12-16T23:11:30.466Z,2.30
2018-12-16T23:13:59.331Z,2.35
2018-12-16T23:16:28.044Z,2.37
2018-12-16T23:18:56.724Z,2.39
2018-12-16T23:21:25.689Z,2.40
2018-12-16T23:23:54.393Z,2.44
2018-12-16T23:26:23.491Z,2.43
2018-12-16T23:28:52.199Z,2.45
2018-12-16T23:31:21.161Z,2.42
2018-12-16T23:33:50.153Z,2.46
2018-12-16T23:36:19.146Z,2.50
2018-12-16T23:38:48.153Z,2.51
2018-12-16T23:41:17.169Z,2.50
2018-12-16T23:43:46.083Z,2.49
2018-12-16T23:46:14.822Z,2.48
2018-12-16T23:48:43.638Z,2.49
2018-12-16T23:51:12.507Z,2.45
2018-12-16T23:53:41.225Z,2.50
2018-12-16T23:56:10.194Z,2.49
2018-12-16T23:58:38.918Z,2.49
